Observations for Trim Market St
| Time | AQI | Temp °C | Hum % | Pres Pa | CO μg/m³ | H₂S μg/m³ | NO μg/m³ | NO₂ μg/m³ | O₃ μg/m³ | SO₂ μg/m³ | PM1 μg/m³ | PM2.5 μg/m³ | PM10 μg/m³ |
|---|---|---|---|---|---|---|---|---|---|---|---|---|---|
| Sunday 23 August 2026 | |||||||||||||
| 01:36 | 2 | 14.9 | 66 | 57,369 | 0.26 | 0 | 1.85 | 11.31 | 52.95 | 0 | 1.43 | 2.77 | 4.26 |
| 01:35 | 2 | 14.9 | 66 | 57,373 | 0.25 | 0 | 1.8 | 7.84 | 55.52 | 0 | 2.14 | 3.76 | 6.22 |
| 01:34 | 2 | 15 | 66 | 57,371 | 0.24 | 0 | 1.78 | 7.2 | 58.09 | 0 | 2.14 | 3.27 | 5.57 |
| 01:33 | 2 | 15 | 66 | 57,365 | 0.27 | 0 | 1.76 | 8.51 | 55.88 | 0 | 1.43 | 3.27 | 4.92 |
| 01:32 | 2 | 15 | 66 | 57,364 | 0.25 | 0 | 1.71 | 7.55 | 56.58 | 0 | 0.71 | 3.27 | 4.92 |
| 01:31 | 2 | 15 | 66 | 57,360 | 0.26 | 0 | 1.76 | 7.5 | 56.8 | 0 | 0.71 | 2.77 | 4.26 |
| 01:30 | 2 | 15 | 66 | 57,356 | 0.24 | 0 | 1.83 | 7.31 | 57.53 | 0 | 2.14 | 3.76 | 5.57 |
| 01:29 | 2 | 15 | 66 | 57,352 | 0.25 | 0 | 1.84 | 7.65 | 56.13 | 0 | 2.14 | 3.76 | 6.22 |
| 01:28 | 2 | 15.1 | 66 | 57,353 | 0.24 | 0 | 1.8 | 7.69 | 57.88 | 0 | 1.43 | 2.77 | 4.26 |
| 01:27 | 2 | 15.1 | 66 | 57,353 | 0.26 | 0 | 1.84 | 8.35 | 53.97 | 0 | 2.14 | 4.25 | 8.18 |
| 01:26 | 2 | 15.1 | 66 | 57,354 | 0.26 | 0 | 1.84 | 7.48 | 56.91 | 0 | 1.43 | 3.27 | 6.22 |
| 01:22 | 2 | 15.1 | 65 | 57,356 | 0.27 | 0 | 1.55 | 7.82 | 57.74 | 0 | 2.14 | 4.26 | 6.22 |
| 01:20 | 2 | 15.2 | 65 | 57,364 | 0.25 | 0 | 1.52 | 8.73 | 55.38 | 0 | 2.14 | 4.26 | 6.22 |
| 01:19 | 2 | 15.2 | 65 | 57,367 | 0.25 | 0 | 1.42 | 8.9 | 53.43 | 0 | 2.14 | 4.75 | 6.88 |
| 01:16 | 2 | 15.3 | 65 | 57,366 | 0.25 | 0 | 1.48 | 8.73 | 53.83 | 0 | 2.14 | 4.75 | 7.53 |
| 01:08 | 2 | 15.4 | 65 | 57,423 | 0.24 | 0 | 1.61 | 9.94 | 58.39 | 0 | 2.14 | 4.28 | 6.22 |
| 01:07 | 2 | 15.4 | 65 | 57,439 | 0.25 | 0 | 1.6 | 9.68 | 64.25 | 0 | 1.43 | 4.28 | 8.84 |
| 01:06 | 2 | 15.4 | 65 | 57,455 | 0.25 | 0 | 1.56 | 14.2 | 76.46 | 0 | 2.85 | 4.78 | 6.87 |
| 01:05 | 2 | 15.5 | 65 | 57,468 | 0.25 | 0 | 1.37 | 11.61 | 53.36 | 0 | 1.43 | 4.78 | 8.19 |
| 01:03 | 2 | 15.5 | 65 | 57,491 | 0.25 | 0 | 1.38 | 11.61 | 51.95 | 0 | 2.14 | 3.8 | 5.55 |